Gale Warning
Issued at: 5:00 PM TODAY , 16 September 2019
Gale Warning # 11
For: strong TO GALE FORCE WINDS ASSOCIATED WITH the SOUTHWEST MONSOON.

Gale Warning in PDF file



Weather Advisory
Issued at: 11:00 AM 2019 September 16
Weather Advisory in PDF file




General Flood Advisories - Regional
 General Flood Advisory issued as of 7 PM, 20 August 2018



Advisories


Monthly Climate Assessment and Outlook (July-August 2018)

Issued: 06 August 2018

Monthly Rainfall Forecast
RAINFALL FORECAST  (September 2018 - February 2019) 
UPDATED: 29 August 2018 (next update September 26, 2018)


Regional Rainfall Forecast
Issued: 29 August 2018
Valid for: September 2018 - February 2019
Farm Weather Forecast and Advisories
ISSUED: 8 AM,  FRIDAY,  MAY 24, 2019
VALID UNTIL: 8 AM,  SATURDAY, MAY 25
, 2019
FWFA:  N0. 19-144

Ten-Day Regional Agri-Weather Information
DEKAD NO. 15   MAY 21 - 31, 2019
PHILIPPINE AGRI-WEATHER FORECAST
The weather systems that will affect the whole country are the frontal system, easterlies, ridge of high pressure area, intertropical convergence zone (ITCZ) and low pressure area (LPA).

Seasonal Climate Outlook
Issued:  13 July 2018
FOR July - December 2018
PDF 




Astronomical Diary
Issue for October 2018
The October Orionids meteor shower will be active from October 17-25, 2017.




   PAGASA webmail  Learning Tools  Bidding 

  Training Activities  Vacancy  Research-and-Development

  Engineering  faqupdate  Publications 

AVIATION WEATHER

ICAO Codes

  • RPLA – Pinamalayan Airport – Pinamalayan, Oriental Mindoro
  • RPLB (SFS) – Subic Bay International Airport – Subic Bay Freeport Zone, Bataan
  • RPLC (CRK) – Clark International Airport/Clark Air Base (military)  – Clark Freeport Zone
  • RPLG – Wasig Airport – Mansalay, Oriental Mindoro
  • RPLI (LAO) – Laoag International Airport – Laoag City, Ilocos Norte
  • RPLJ – Jomalig Airport – Jomalig, Quezon
  • RPLL (MNL) – Ninoy Aquino International Airport (Manila International Airport)/Villamor Air Base (military) – Metro Manila
  • RPLN – Palanan Airport – Palanan, Isabela
  • RPLO (CYU) – Cuyo Airport – Cuyo, Palawan
  • RPLP (LGP) – Legazpi Airport – Legazpi City, Albay
  • RPLQ – Crow Valley Gunnery Range (military) – Capas, Tarlac
  • RPLR – Rosales Airport – Rosales, Pangasinan
  • RPLS (SGL) – Atienza Air Base (military) (formerly U.S. Naval Station Sangley Point) – Cavite City, Cavite
  • RPLT – Itbayat Airport – Itbayat, Batanes
  • RPLU (LBX) – Lubang Airport – Lubang, Occidental Mindoro
  • RPLV – Fort Magsaysay Airfield (military) – Palayan City, Nueva Ecija
  • RPLX – Kindley Landing Field (Corregidor) – Cavite City, Cavite
  • RPLY – Alabat Airport – Perez, Quezon
  • RPLZ – Sorsogon Airport – Sorsogon City, Sorsogon
  • RPMA (AAV) – Allah Valley Airport – Surallah, South Cotabato
  • RPMB – Rajah Buayan Air Base (military) – General Santos City (formerly assigned to U.S. Naval Air Station Cubi Point, now RPLB - Subic Bay International Airport)
  • RPMC (CBO) – Awang Airport (Cotabato Airport) – Datu Odin Sinsuat, Maguindanao (formerly assigned to Cebu-Lahug Airport, now closed)
  • RPMD (DVO) – Francisco Bangoy International Airport – Davao City
  • RPME (BXU) – Bancasi Airport (Butuan Airport) – Butuan City
  • RPMF (BPH) – Bislig Airport – Bislig City, Surigao del Sur
  • RPMG (DPL) – Dipolog Airport – Dipolog City, Zamboanga del Norte
  • RPMH (CGM) – Camiguin Airport – Mambajao, Camiguin
  • RPMI (IGN) – Maria Cristina Airport (Iligan Airport) – Baloi, Lanao del Norte
  • RPMJ (JOL) – Jolo Airport – Jolo, Sulu
  • RPMK – Tacurong Airport (Kenram Airport) – Tacurong City, Sultan Kudarat (formerly assigned to Clark Air Base, now RPLC - Diosdado Macapagal (Clark) International Airport)
  • RPML (CGY) – Lumbia Airport (Cagayan de Oro Airport) – Cagayan de Oro City (formerly assigned to Laoag International Airport, now RPLI)
  • RPMM (MLP) – Malabang Airport – Malabang, Lanao del Sur (formerly assigned to Ninoy Aquino (Manila) International Airport, now RPLL)
  • RPMN (SGS) – Sanga-Sanga Airport (Bongao Airport) – Bongao, Tawi-Tawi
  • RPMO (OZC) – Labo Airport (Ozamiz Airport) – Ozamiz City, Misamis Occidental
  • RPMP (PAG) – Pagadian Airport – Pagadian City, Zamboanga del Sur (formerly assigned to Legazpi Airport, now RPLP)
  • RPMQ (MXI) – Imelda R. Marcos Airport (Mati Airport) – Mati, Davao Oriental
  • RPMR (GES) – General Santos International Airport – General Santos City (formerly assigned to a weather station in Romblon Island)
  • RPMS (SUG) – Surigao Airport – Surigao City, Surigao del Norte (formerly assigned to U.S. Naval Station Sangley Point, now RPLS - Atienza Air Base)
  • RPMT – Del Monte Plantation Airstrip (private) – Manolo Fortich, Bukidnon (formerly assigned to Mactan Air Base, now part of RPVM - Mactan-Cebu International Airport)
  • RPMU – Cagayan de Tawi-Tawi Airport – Mapun, Tawi-Tawi
  • RPMV (IPE) – Ipil Airport – Ipil, Zamboanga Sibugay
  • RPMW (TDG) – Tandag Airport – Tandag, Surigao del Sur
  • RPMX – Liloy Airport – Liloy, Zamboanga del Norte
  • RPMY – Malaybalay Airport – Malaybalay City, Bukidnon
  • RPMZ (ZAM) – Zamboanga International Airport – Zamboanga City
  • RPNO (XSO) – Siocon Airport – Siocon, Zamboanga del Norte
  • RPNS (SOS) – Sayak Airport (Siargao Airport) – Del Carmen, Surigao del Norte
  • RPSB – Bantayan Airport – Santa Fe, Cebu
  • RPSD (RZP) – Taytay-Sandoval Airport (Cesar Lim Rodriguez Airport) – Taytay, Palawan
  • RPSG (ICO) – Sicogon Airport – Carles, Iloilo
  • RPSM – Panan-awan Airport – Maasin City, Southern Leyte
  • RPSN – Ubay Airport – Ubay, Bohol
  • RPSR – Semirara Airport (private) – Caluya, Antique
  • RPTP – Tarumpitao Point Airport – Rizal, Palawan
  • RPUA – Aparri Airport – Aparri, Cagayan
  • RPUB (BAG) – Loakan Airport – Baguio City
  • RPUC – Cabanatuan Airport – Cabanatuan City, Nueva Ecija
  • RPUD (DTE) – Bagasbas Airport – Daet, Camarines Norte
  • RPUE – Lucena Airport – Lucena City
  • RPUF – Basa Air Base (military) – Floridablanca, Pampanga
  • RPUG – Lingayen Airport – Lingayen, Pangasinan
  • RPUH (SJI) – San Jose Airport – San Jose, Occidental Mindoro
  • RPUI – Iba Airport – Iba, Zambales
  • RPUJ – Castillejos Airfield (private) – Castillejos, Zambales
  • RPUK (CPP) – Calapan Airport – Calapan City, Oriental Mindoro
  • RPUL – Fernando Air Base (military) – Lipa City, Batangas
  • RPUM (MBO) – Mamburao Airport – Mamburao, Occidental Mindoro
  • RPUN (WNP) – Naga Airport (Pili Airport) – Pili, Camarines Sur
  • RPUO (BSO) – Basco Airport – Basco, Batanes
  • RPUP – Jose Panganiban Airport – Jose Panganiban, Camarines Norte
  • RPUQ – Mindoro Airport (Vigan Airport) – Vigan City, Ilocos Sur
  • RPUR (BQA) – Baler Airport – Baler, Aurora
  • RPUS (SFE) – San Fernando Airport (Poro Point Airport) – San Fernando City, La Union
  • RPUT (TUG) – Tuguegarao Airport – Tuguegarao City, Cagayan
  • RPUU – Bulan Airport – Bulan, Sorsogon
  • RPUV (VRC) – Virac Airport – Virac, Catanduanes
  • RPUW (MRQ) – Marinduque Airport – Gasan, Marinduque
  • RPUX – Plaridel Airport – Plaridel, Bulacan
  • RPUY (CYZ) – Cauayan Airport – Cauayan City, Isabela
  • RPUZ – Bagabag Airport – Bagabag, Nueva Vizcaya
  • RPVA (TAC) – Daniel Z. Romualdez Airport (Tacloban Airport) – Tacloban City
  • RPVB (BCD) – New Bacolod-Silay Airport – Silay City, Negros Occidental
  • RPVC (CYP) – Calbayog Airport – Calbayog City, Samar
  • RPVD (DGT) – Sibulan Airport (Dumaguete Airport) – Sibulan, Negros Oriental
  • RPVE (MPH) – Godofredo P. Ramos Airport (Caticlan Airport) – Malay, Aklan
  • RPVF (CRM) – Catarman National Airport – Catarman, Northern Samar
  • RPVG – Guiuan Airport – Guiuan, Eastern Samar
  • RPVH (HIL) – Hilongos Airport – Hilongos, Leyte
  • RPVI (ILO) – Iloilo Airport – Cabatuan, Iloilo
  • RPVJ (MBT) – Masbate Airport – Masbate City, Masbate
  • RPVK (KLO) – Kalibo Airport – Kalibo, Aklan
  • RPVL – Roxas-del Pilar Airport – Roxas, Palawan
  • RPVM (CEB) – Mactan-Cebu International Airport – Lapu-Lapu City
  • RPVN – Medellin Airport[disambiguation needed] – Medellin, Cebu
  • RPVO (OMC) – Ormoc Airport – Ormoc City
  • RPVP (PPS) – Puerto Princesa International Airport – Puerto Princesa City
  • RPVQ – Biliran Airport (Naval Airport) – Naval, Biliran
  • RPVR (RXS) – Roxas Airport – Roxas City, Capiz
  • RPVS (EUQ) – Evelio Javier Airport (Antique Airport) – San Jose de Buenavista, Antique
  • RPVT (TAG) – Tagbilaran Airport – Tagbilaran City, Bohol
  • RPVU (TBH) – Tugdan Airport (Tablas/Romblon Airport) – Tablas, Romblon
  • RPVV (USU) – Francisco Reyes Airport (Busuanga Airport) – Coron, Palawan
  • RPVW – Borongan Airport – Borongan, Eastern Samar
  • RPVX – Dolores Airport – Dolores, Eastern Samar
  • RPVY – Catbalogan Airport – Catbalogan, Samar
  • RPVZ also RPSQ – Siquijor Airport – Siquijor, Siquijor
  • RPXX – used for civilian airports and airstrips with no ICAO code yet
  • RPZZ – used for military airports and airstrips with no ICAO code yet
TAF RPLL

092300Z 1000/1106 26006KT 9999 FEW023 SCT100 TX34/1006Z TN27/1022Z TEMPO 1000/1006 28012KT FEW022CB BKN100 TEMPO 1006/1012 23008KT 9000 -SHRA FEW022CB BKN090=

TAF RPVM

092300Z 1000/1106 24006KT 9999 FEW020 BKN300 TEMPO 1000/1006 23010KT FEW020 BKN090 TEMPO 1006/1012 25012KT 9000 -SHRA FEW018CB OVC090=

TAF RPLC

092300Z 1000/1106 24006KT 9999 SCT020 BKN300 TX34/1006Z TN25/1022Z TEMPO 1000/1006 17010KT 8000 -TSRA FEW015CB SCT018 OVC100=

TAF RPLB

092300Z 1000/1024 22008KT 9999 FEW018 BKN100 TX32/1006Z TN24/1022Z TEMPO 1000/1006 VRB03KT 9000 -TSRA FEW016CB SCT018 OVC080=

TAF RPLI

092300Z 1000/1024 25006KT 9999 FEW018 BKN100 TEMPO 1000/1006 12008KT 8000 -TSRA FEW017CB SCT018 BKN090=

TAF RPVP

092300Z 1000/1024 23005KT 9999 FEW019 SCT250 TEMPO 1000/1006 00000KT FEW017CB SCT019 OVC080=

TAF RPVD

092300Z 1000/1024 27006KT 9999 FEW015 SCT070 BKN220 TEMPO 1000/1006 09010KT -TSRA FEW014CB BKN070=

TAF RPMR

092300Z 1000/1024 16006KT 9999 FEW020 SCT250 TEMPO 1006/1012 09010KT -TSRA FEW018CB BKN080=

TAF RPMD

092300Z 1000/1024 01006KT 9999 FEW016 SCT290 TEMPO 1006/1012 20009KT 8000 -TSRA FEW015CB SCT016 BKN090=

TAF RPMZ

092300Z 1000/1024 27006KT 9999 FEW017 SCT300 TEMPO 1000/1006 28012KT -TSRA FEW016CB BKN090=


RPLL FORECAST TAKE-OFF CONDITION
TIME

(UTC)

WIND

(dddffKT)

TEMP

(°C)

QNH

(hPa)

TIME

(UTC)

WIND

(dddffKT)

TEMP

(°C)

QNH

(hPa)

0000

     22004KT

28.0

1008.0

0400

26009KT

33.0

1009.0

0100

26004KT

30.0

1009.0

0500

26010KT

34.0

1008.0

0200

24006KT

31.0

1009.0

0600

28012KT

34.0

1007.0

0300

23008KT

33.0

1009.0

0700

25013KT

33.0

1006.0


ISSUED AT NAIA AMSS-WD/PAGASA-DOST FOR 2300UTC 09 MAY 2019

PREPARED BY:                        CRSED
CHECKED BY:                          GSS
WSPH31 RPLL 130821
RPHI SIGMET A01 VALID 130821/131221 RPLL-
RPHI MANILA FIR EMBD TS OBS WI N1841 E12137 - N1658 E12150 - N1615 E12103 - N1639 E11938 - N1725 E12021 - N1849 E12042 - N1841 E12137 TOP FL520 STNR NC=

PUBLIC WARNING 


It has come to the attention of the Office of the Administrator of PAGASA that a certain person has been using the name of Dr. Vicente B. Malano to solicit money from the contractors of PAGASA.

Dr. Malano wishes to inform the public that he has not authorized anyone to solicit money on his behalf and to warn everyone against dealing with unscrupulous activities of certain individuals.





payong pagasa on android The latest version of the official PAGASA app can now be downloaded on Google play store

List of Trainees for the Meteorological Technicians Training Course (MTTC) 2019

The following have been accepted to undergo the Meteorological Technicians Training Course (MTTC), scheduled on 06 May – 14 October 2019

Read more ...



Weather Division is now  ISO 9001:2015 Certified

Proof has been furnished by means of an audit that the requirements of ISO 9001:2015 are met.

Read more ...


ONSET OF RAINY SEASON
14 June 2019

The occurrence of scattered to at times widespread rainfall associated with the Southwest Monsoon during the past few days as observed by most PAGASA stations...


Read more ...